This is the latest recevied weather packets stored in our database for station/object KN4MGS. If no packets are shown the sender has not sent any weather packets the latest 1 day(s).
| Time | Temp. | Humidity | Pressure | Rain* | Wind** | Luminosity | Snow |
|---|---|---|---|---|---|---|---|
| 1778079069 | 22.78° C | 71% | 1017.7 hPa | 0 mm | - | 527 W/m² | - |
| 1778078766 | 22.78° C | 71% | 1017.6 hPa | 0 mm | - | 445 W/m² | - |
| 1778078161 | 22.22° C | 73% | 1017.4 hPa | 0 mm | - | 427 W/m² | - |
| 1778077556 | 21.67° C | 77% | 1017.8 hPa | 0 mm | - | 480 W/m² | - |
| 1778076650 | 20° C | 80% | 1017.8 hPa | 0 mm | - | 259 W/m² | - |
| 1778076347 | 19.44° C | 81% | 1017.8 hPa | 0 mm | - | 295 W/m² | - |
| 1778075437 | 19.44° C | 82% | 1017.5 hPa | 0 mm | - | 175 W/m² | - |
| 1778074527 | 19.44° C | 82% | 1017.7 hPa | 0 mm | - | 186 W/m² | - |
| 1778073921 | 19.44° C | 81% | 1017.8 hPa | 0 mm | - | 252 W/m² | - |
| 1778073012 | 18.89° C | 83% | 1017.3 hPa | 0 mm | - | 183 W/m² | - |
| 1778070895 | 17.22° C | 86% | 1018 hPa | 0 mm | - | 65 W/m² | - |
| 1778067869 | 16.67° C | 87% | 1017.9 hPa | 0 mm | - | 58 W/m² | - |
| 1778067264 | 16.67° C | 87% | 1018.1 hPa | 0 mm | - | 64 W/m² | - |
| 1778066350 | 16.67° C | 87% | 1017.7 hPa | 0 mm | - | 36 W/m² | - |
| 1778065443 | 16.67° C | 87% | 1017.5 hPa | 0 mm | - | 21 W/m² | - |
| 1778065139 | 16.67° C | 87% | 1017.4 hPa | 0 mm | - | 17 W/m² | - |
| 1778064533 | 16.67° C | 87% | 1017.3 hPa | 0 mm | - | 10 W/m² | - |
| 1778062717 | 16.11° C | 87% | 1016.4 hPa | 0 mm | - | 0 W/m² | - |
| 1778061810 | 16.67° C | 86% | 1016.8 hPa | 0 mm | - | 0 W/m² | - |
| 1778061508 | 16.67° C | 86% | 1017.1 hPa | 0 mm | - | 0 W/m² | - |
| 1778060901 | 16.67° C | 86% | 1016.8 hPa | 0 mm | - | 0 W/m² | - |
| 1778060600 | 16.67° C | 86% | 1016.9 hPa | 0 mm | - | 0 W/m² | - |
| 1778060298 | 16.67° C | 86% | 1016.9 hPa | 0 mm | - | 0 W/m² | - |
| 1778059390 | 16.67° C | 86% | 1017.1 hPa | 0 mm | - | 0 W/m² | - |
| 1778059087 | 16.67° C | 86% | 1017 hPa | 0 mm | - | 0 W/m² | - |
* Rain latest hour (hover to see other rain measurements)
** Current wind speed in m/s (hover to see current wind gust speed)